Time;durP1;ratioP1;P1;durP2;ratioP2;P2;SDS_P1;SDS_P2;PMS_P1;PMS_P2;Temp;Humidity;BMP_temperature;BMP_pressure;BME280_temperature;BME280_humidity;BME280_pressure;Samples;Min_cycle;Max_cycle;Signal;HPM_P1;HPM_P2
2023/05/11 00:02:16;;;;;;;15.57;11.20;;;;;;;14.13;89.82;100684.56;5087127;28;20150;-73
2023/05/11 00:04:44;;;;;;;14.73;11.05;;;;;;;14.08;90.24;100680.56;5097563;28;20111;-71
2023/05/11 00:07:11;;;;;;;19.30;10.07;;;;;;;14.03;90.23;100683.56;5091375;28;20040;-74
2023/05/11 00:09:40;;;;;;;18.48;10.57;;;;;;;14.00;90.78;100685.56;5093522;28;20112;-73
2023/05/11 00:12:07;;;;;;;18.05;11.73;;;;;;;13.95;91.12;100680.63;5086928;28;20078;-74
2023/05/11 00:14:34;;;;;;;17.65;10.40;;;;;;;13.90;91.97;100678.28;5090809;28;20186;-75
2023/05/11 00:17:02;;;;;;;18.83;11.38;;;;;;;13.86;92.40;100674.19;5089434;28;20048;-74
2023/05/11 00:19:30;;;;;;;18.10;11.38;;;;;;;13.83;92.43;100668.28;5089987;28;20143;-72
2023/05/11 00:21:58;;;;;;;16.45;11.60;;;;;;;13.81;93.14;100678.13;5087793;28;20262;-73
2023/05/11 00:24:25;;;;;;;18.30;12.52;;;;;;;13.78;92.78;100673.03;5085645;28;20087;-72
2023/05/11 00:26:52;;;;;;;16.70;11.88;;;;;;;13.76;92.61;100673.16;5086863;28;20769;-75
2023/05/11 00:29:20;;;;;;;16.80;11.60;;;;;;;13.75;93.35;100665.34;5087483;28;21027;-73
2023/05/11 00:31:47;;;;;;;21.50;11.65;;;;;;;13.71;93.38;100663.88;5088230;28;20091;-72
2023/05/11 00:34:15;;;;;;;16.90;11.70;;;;;;;13.66;93.99;100665.03;5084246;28;20131;-71
2023/05/11 00:36:43;;;;;;;18.35;11.43;;;;;;;13.63;93.96;100662.59;5072615;28;20040;-72
2023/05/11 00:39:11;;;;;;;15.10;11.88;;;;;;;13.62;94.29;100666.19;5092382;28;20067;-73
2023/05/11 00:41:38;;;;;;;13.05;11.55;;;;;;;13.57;94.78;100670.97;5071912;28;20041;-72
2023/05/11 00:44:06;;;;;;;16.27;11.80;;;;;;;13.54;95.35;100667.69;5088763;28;20044;-73
2023/05/11 00:46:33;;;;;;;16.33;11.25;;;;;;;13.53;95.35;100676.59;5092765;28;20058;-72
2023/05/11 00:49:01;;;;;;;17.80;12.00;;;;;;;13.51;95.14;100668.78;5047252;28;20059;-72
2023/05/11 00:51:30;;;;;;;14.85;11.70;;;;;;;13.50;95.16;100669.69;5089350;28;20070;-73
2023/05/11 00:53:58;;;;;;;15.55;12.82;;;;;;;13.49;95.25;100664.53;5091729;28;20052;-73
2023/05/11 00:56:26;;;;;;;17.85;13.45;;;;;;;13.47;96.25;100666.44;5087572;28;20052;-74
2023/05/11 00:58:53;;;;;;;15.52;12.65;;;;;;;13.45;96.30;100669.19;5092204;28;20074;-74
2023/05/11 01:01:21;;;;;;;15.30;12.38;;;;;;;13.42;96.41;100664.13;5058057;28;20144;-72
2023/05/11 01:03:48;;;;;;;14.20;11.90;;;;;;;13.39;96.17;100664.34;5071579;28;20084;-73
2023/05/11 01:06:30;;;;;;;18.48;12.30;;;;;;;13.38;96.15;100667.94;5086268;28;20052;-72
2023/05/11 01:09:19;;;;;;;20.90;12.70;;;;;;;13.37;96.68;100664.47;5085776;28;20047;-73
2023/05/11 01:11:57;;;;;;;15.80;12.45;;;;;;;13.36;96.80;100667.19;5087712;28;20052;-72
2023/05/11 01:14:31;;;;;;;17.00;12.43;;;;;;;13.34;96.70;100669.94;5084118;28;20117;-73
2023/05/11 01:17:04;;;;;;;14.15;11.80;;;;;;;13.32;96.73;100671.00;5071410;28;20090;-73
2023/05/11 01:19:47;;;;;;;15.27;12.93;;;;;;;13.28;96.50;100678.28;5087524;28;20185;-73
2023/05/11 01:22:53;;;;;;;17.85;12.43;;;;;;;13.26;97.52;100679.38;5050584;28;20733;-72
2023/05/11 01:25:38;;;;;;;18.05;12.80;;;;;;;13.22;98.08;100685.78;5091073;28;20062;-73
2023/05/11 01:28:43;;;;;;;21.13;13.77;;;;;;;13.16;97.53;100689.69;5087012;28;20052;-73
2023/05/11 01:31:11;;;;;;;15.88;12.60;;;;;;;13.10;97.90;100683.03;5086410;28;20048;-73
2023/05/11 01:33:47;;;;;;;22.88;12.65;;;;;;;13.03;98.07;100686.19;5090897;28;20071;-72
2023/05/11 01:36:15;;;;;;;18.65;12.98;;;;;;;12.99;98.52;100690.84;5072463;28;20495;-73
2023/05/11 01:38:44;;;;;;;18.38;13.85;;;;;;;12.97;98.83;100692.75;5069772;28;20048;-71
2023/05/11 01:41:17;;;;;;;18.67;14.90;;;;;;;12.97;98.93;100694.53;5069163;28;20155;-74
2023/05/11 01:43:48;;;;;;;21.83;15.55;;;;;;;12.94;99.17;100695.59;5085220;28;20055;-72
2023/05/11 01:46:16;;;;;;;20.63;14.63;;;;;;;12.90;99.78;100694.09;5089548;28;20071;-73
2023/05/11 01:48:46;;;;;;;22.90;14.70;;;;;;;12.86;100.00;100695.25;5092034;28;20082;-73
2023/05/11 01:51:15;;;;;;;20.90;15.80;;;;;;;12.83;100.00;100706.91;5083083;28;20049;-75
2023/05/11 01:53:43;;;;;;;19.35;14.23;;;;;;;12.82;100.00;100697.25;5087347;28;20088;-72
2023/05/11 01:56:11;;;;;;;21.55;15.63;;;;;;;12.82;100.00;100706.97;5087674;28;20627;-73
2023/05/11 01:58:39;;;;;;;20.23;14.68;;;;;;;12.80;100.00;100704.44;5094419;28;20167;-75
2023/05/11 02:01:10;;;;;;;20.55;14.98;;;;;;;12.78;100.00;100701.03;5088680;28;20135;-73
2023/05/11 02:03:37;;;;;;;19.48;14.50;;;;;;;12.76;100.00;100699.47;5086367;28;20059;-73
2023/05/11 02:06:05;;;;;;;19.10;15.30;;;;;;;12.73;100.00;100700.50;5086149;28;20070;-73
2023/05/11 02:08:33;;;;;;;19.38;14.43;;;;;;;12.73;100.00;100707.59;5082544;28;20078;-72
2023/05/11 02:11:01;;;;;;;20.10;13.18;;;;;;;12.70;100.00;100713.06;5085726;28;20052;-73
2023/05/11 02:13:29;;;;;;;15.27;13.45;;;;;;;12.68;100.00;100716.66;5091452;28;20660;-72
2023/05/11 02:18:52;;;;;;;17.88;13.68;;;;;;;12.66;100.00;100712.44;5086037;28;20496;-72
2023/05/11 02:21:20;;;;;;;18.30;13.15;;;;;;;12.64;100.00;100714.34;5088926;28;20040;-73
2023/05/11 02:23:50;;;;;;;19.95;14.65;;;;;;;12.64;100.00;100720.47;5090359;28;20047;-72
2023/05/11 02:26:17;;;;;;;20.42;14.52;;;;;;;12.61;100.00;100718.03;5087584;28;20587;-72
2023/05/11 02:28:44;;;;;;;16.20;12.93;;;;;;;12.57;100.00;100724.47;5087110;28;20054;-73
2023/05/11 02:31:16;;;;;;;18.85;13.93;;;;;;;12.55;100.00;100721.06;5069845;28;20064;-73
2023/05/11 02:33:47;;;;;;;15.98;13.13;;;;;;;12.53;100.00;100725.63;5090217;28;20055;-72
2023/05/11 02:36:21;;;;;;;20.73;13.65;;;;;;;12.48;100.00;100722.44;5087055;28;20048;-72
2023/05/11 02:38:53;;;;;;;15.98;11.88;;;;;;;12.45;100.00;100719.97;5086336;28;20064;-71
2023/05/11 02:41:25;;;;;;;15.85;12.63;;;;;;;12.41;100.00;100726.41;5085978;28;20075;-72
2023/05/11 02:43:53;;;;;;;14.63;12.35;;;;;;;12.39;100.00;100717.75;5070002;28;20056;-73
2023/05/11 02:46:24;;;;;;;15.43;12.80;;;;;;;12.39;100.00;100717.75;5073310;28;20064;-73
2023/05/11 02:48:55;;;;;;;18.25;12.30;;;;;;;12.39;100.00;100720.38;5087662;28;20045;-72
2023/05/11 02:51:27;;;;;;;13.57;12.18;;;;;;;12.36;100.00;100716.13;5084500;28;20067;-73
2023/05/11 02:53:56;;;;;;;14.63;12.07;;;;;;;12.35;100.00;100717.09;5089103;28;20677;-72
2023/05/11 02:56:24;;;;;;;12.32;10.95;;;;;;;12.32;100.00;100724.34;5087565;28;20756;-72
2023/05/11 02:58:51;;;;;;;14.10;11.02;;;;;;;12.28;100.00;100726.34;5082142;28;20051;-72
2023/05/11 03:01:20;;;;;;;11.52;10.32;;;;;;;12.26;100.00;100722.13;5086012;28;20052;-71
2023/05/11 03:03:47;;;;;;;12.85;11.15;;;;;;;12.23;100.00;100731.06;5068562;28;20048;-72
2023/05/11 03:06:15;;;;;;;13.73;10.73;;;;;;;12.24;100.00;100729.28;5085126;28;20047;-75
2023/05/11 03:08:42;;;;;;;14.48;10.93;;;;;;;12.22;100.00;100720.63;5088399;28;20048;-73
2023/05/11 03:11:11;;;;;;;13.23;11.23;;;;;;;12.18;100.00;100724.41;5100826;28;20139;-73
2023/05/11 03:13:39;;;;;;;12.07;9.05;;;;;;;12.16;100.00;100733.28;5081535;28;20048;-71
2023/05/11 03:16:06;;;;;;;12.45;10.48;;;;;;;12.16;100.00;100716.59;5081364;28;20159;-73
2023/05/11 03:18:35;;;;;;;10.85;9.75;;;;;;;12.14;100.00;100721.94;5082434;28;20056;-72
2023/05/11 03:21:03;;;;;;;11.88;9.88;;;;;;;12.14;100.00;100716.66;5084375;28;20048;-72
2023/05/11 03:23:31;;;;;;;11.10;9.88;;;;;;;12.14;100.00;100721.09;5086149;28;20048;-72
2023/05/11 03:25:59;;;;;;;16.27;10.45;;;;;;;12.13;100.00;100729.97;5069232;28;20048;-72
2023/05/11 03:28:27;;;;;;;16.75;10.32;;;;;;;12.13;100.00;100724.69;5086610;28;20023;-73
2023/05/11 03:30:54;;;;;;;11.98;10.23;;;;;;;12.12;100.00;100726.50;5085302;28;20120;-73
2023/05/11 03:33:21;;;;;;;11.10;10.00;;;;;;;12.11;100.00;100727.44;5079708;28;20568;-73
2023/05/11 03:35:50;;;;;;;12.00;10.57;;;;;;;12.13;99.31;100733.47;5079212;28;20498;-73
2023/05/11 03:38:21;;;;;;;12.35;10.25;;;;;;;12.14;99.31;100731.66;5082735;28;20044;-73
2023/05/11 03:40:50;;;;;;;12.82;9.45;;;;;;;12.15;98.25;100734.19;5084613;28;20049;-72
2023/05/11 03:43:19;;;;;;;11.40;8.18;;;;;;;12.16;98.14;100732.44;5085647;28;20471;-72
2023/05/11 03:45:47;;;;;;;11.88;9.30;;;;;;;12.17;97.52;100739.41;5083756;28;20056;-71
2023/05/11 03:48:17;;;;;;;12.45;8.75;;;;;;;12.17;96.64;100736.75;5051661;28;20124;-73
2023/05/11 03:50:46;;;;;;;10.65;8.80;;;;;;;12.18;96.05;100729.69;5063495;28;20098;-71
2023/05/11 03:53:14;;;;;;;13.77;9.80;;;;;;;12.20;95.39;100731.25;5083467;28;20044;-73
2023/05/11 03:55:42;;;;;;;10.93;8.70;;;;;;;12.21;95.04;100724.22;5085261;28;20144;-73
2023/05/11 03:58:09;;;;;;;14.40;9.07;;;;;;;12.21;94.15;100732.97;5084368;28;20052;-73
2023/05/11 04:00:38;;;;;;;12.85;9.15;;;;;;;12.22;93.69;100736.47;5065802;28;20109;-73
2023/05/11 04:03:07;;;;;;;10.30;9.13;;;;;;;12.22;93.38;100729.38;5081177;28;20123;-72
2023/05/11 04:05:35;;;;;;;12.82;9.25;;;;;;;12.23;93.46;100732.88;5085684;28;20058;-71
2023/05/11 04:08:03;;;;;;;11.98;8.77;;;;;;;12.24;92.94;100729.28;5084724;28;20123;-71
2023/05/11 04:10:31;;;;;;;11.75;8.38;;;;;;;12.28;92.41;100731.63;5083655;28;20040;-72
2023/05/11 04:12:58;;;;;;;11.70;8.45;;;;;;;12.31;92.12;100727.94;5078574;28;20053;-73
2023/05/11 04:15:25;;;;;;;10.90;9.52;;;;;;;12.33;91.60;100732.16;5080077;28;20415;-72
2023/05/11 04:17:52;;;;;;;14.30;9.10;;;;;;;12.37;91.03;100735.47;5084542;28;20055;-73
2023/05/11 04:20:20;;;;;;;11.38;8.77;;;;;;;12.40;89.99;100732.63;5080790;28;20044;-71
2023/05/11 04:22:47;;;;;;;15.13;8.70;;;;;;;12.43;89.99;100727.16;5085662;28;20078;-72
2023/05/11 04:25:15;;;;;;;11.18;8.88;;;;;;;12.46;89.15;100729.59;5062114;28;20051;-72
2023/05/11 04:27:42;;;;;;;10.88;7.47;;;;;;;12.50;88.90;100735.53;5086494;28;20656;-72
2023/05/11 04:30:10;;;;;;;8.60;7.30;;;;;;;12.56;88.14;100743.03;5080610;28;20048;-72
2023/05/11 04:32:37;;;;;;;10.10;7.28;;;;;;;12.61;87.44;100740.97;5084168;28;20040;-73
2023/05/11 04:35:05;;;;;;;15.20;7.45;;;;;;;12.64;86.15;100740.75;5082168;28;20066;-73
2023/05/11 04:37:32;;;;;;;10.82;7.20;;;;;;;12.67;86.18;100736.09;5084843;28;20153;-72
2023/05/11 04:39:59;;;;;;;9.77;6.90;;;;;;;12.72;85.63;100745.53;5079661;28;20050;-72
2023/05/11 04:42:29;;;;;;;11.15;6.70;;;;;;;12.76;85.19;100747.03;5082720;28;20052;-72
2023/05/11 04:44:56;;;;;;;10.77;7.55;;;;;;;12.80;84.31;100743.22;5083164;28;20048;-74
2023/05/11 04:47:23;;;;;;;10.82;7.35;;;;;;;12.86;84.18;100748.94;5084920;28;20171;-73
2023/05/11 04:49:50;;;;;;;10.32;6.82;;;;;;;12.91;83.50;100752.13;5065859;28;20052;-72
2023/05/11 04:52:18;;;;;;;10.50;6.63;;;;;;;12.96;82.54;100754.47;5083136;28;20059;-71
2023/05/11 04:54:45;;;;;;;9.82;6.20;;;;;;;13.03;82.24;100754.91;5074082;28;20058;-72
2023/05/11 04:57:12;;;;;;;10.65;6.50;;;;;;;13.10;80.98;100749.13;5080951;28;20052;-72
2023/05/11 04:59:39;;;;;;;11.38;5.97;;;;;;;13.16;80.62;100759.28;5074230;28;20067;-72
2023/05/11 05:02:25;;;;;;;9.55;6.15;;;;;;;13.23;79.95;100751.78;5096209;28;20116;-74
2023/05/11 05:04:52;;;;;;;12.20;6.10;;;;;;;13.35;79.35;100760.69;5067813;28;20052;-71
2023/05/11 05:07:19;;;;;;;7.53;6.35;;;;;;;13.44;78.48;100768.00;5077874;28;20058;-71
2023/05/11 05:09:46;;;;;;;7.63;5.35;;;;;;;13.54;78.27;100761.09;5062993;28;20037;-72
2023/05/11 05:12:14;;;;;;;10.57;6.57;;;;;;;13.58;76.87;100756.47;5078966;28;20036;-71
2023/05/11 05:14:41;;;;;;;11.20;5.78;;;;;;;13.67;75.64;100771.69;5085234;28;20062;-72
2023/05/11 05:17:08;;;;;;;13.02;6.65;;;;;;;13.73;74.98;100771.25;5078480;28;20087;-71
2023/05/11 05:19:36;;;;;;;9.90;6.10;;;;;;;13.81;74.32;100765.44;5046612;28;20048;-71
2023/05/11 05:22:04;;;;;;;8.93;5.55;;;;;;;13.91;74.38;100767.34;5081075;28;20195;-72
2023/05/11 05:24:31;;;;;;;9.68;5.95;;;;;;;14.01;73.54;100766.69;5080902;28;20127;-72
2023/05/11 05:26:58;;;;;;;9.15;5.85;;;;;;;14.09;73.06;100764.31;5080939;28;20096;-71
2023/05/11 05:29:25;;;;;;;7.80;6.07;;;;;;;14.14;72.44;100762.22;5086237;28;20572;-72
2023/05/11 05:31:55;;;;;;;9.90;5.63;;;;;;;14.20;72.13;100772.38;5082458;28;20044;-70
2023/05/11 05:34:22;;;;;;;8.13;5.10;;;;;;;14.30;71.75;100770.72;5083363;28;20065;-71
2023/05/11 05:36:50;;;;;;;12.35;5.90;;;;;;;14.37;70.50;100773.81;5085669;28;20051;-71
2023/05/11 05:39:17;;;;;;;8.00;5.22;;;;;;;14.44;70.64;100773.22;5051090;28;20059;-74
2023/05/11 05:41:44;;;;;;;8.23;5.30;;;;;;;14.50;70.25;100781.72;5083226;28;21042;-70
2023/05/11 05:44:11;;;;;;;8.55;5.22;;;;;;;14.57;69.70;100781.16;5085159;28;20530;-70
2023/05/11 05:46:39;;;;;;;8.27;5.72;;;;;;;14.62;69.23;100778.16;5080600;28;20143;-70
2023/05/11 05:49:06;;;;;;;13.82;5.35;;;;;;;14.73;68.99;100785.34;5083753;28;20059;-69
2023/05/11 05:51:33;;;;;;;9.55;5.20;;;;;;;14.76;68.58;100791.25;5081000;28;20143;-71
2023/05/11 05:54:00;;;;;;;7.95;5.63;;;;;;;14.87;68.39;100793.13;5083071;28;20052;-69
2023/05/11 05:56:28;;;;;;;11.80;5.13;;;;;;;14.93;68.12;100797.97;5084657;28;20059;-69
2023/05/11 05:58:55;;;;;;;8.43;5.57;;;;;;;15.02;67.61;100794.63;5087310;28;20048;-69
2023/05/11 06:01:22;;;;;;;6.32;5.55;;;;;;;15.09;67.16;100795.03;5082282;28;20050;-69
2023/05/11 06:03:50;;;;;;;8.45;5.40;;;;;;;15.12;66.78;100803.56;5087530;28;20040;-68
2023/05/11 06:06:18;;;;;;;7.75;4.78;;;;;;;15.19;66.52;100799.50;5087062;28;20130;-70
2023/05/11 06:08:45;;;;;;;8.82;4.68;;;;;;;15.29;66.45;100798.81;5085632;28;20134;-70
2023/05/11 06:11:13;;;;;;;10.45;5.40;;;;;;;15.43;65.58;100803.91;5082000;28;20060;-71
2023/05/11 06:13:40;;;;;;;7.43;5.18;;;;;;;15.50;65.12;100805.13;5077730;28;20078;-71
2023/05/11 06:16:07;;;;;;;6.78;4.72;;;;;;;15.60;65.20;100806.13;5084546;28;20058;-68
2023/05/11 06:18:34;;;;;;;10.98;4.82;;;;;;;15.60;63.36;100799.97;5083312;28;20135;-68
2023/05/11 06:21:02;;;;;;;8.70;5.07;;;;;;;15.68;63.47;100801.09;5082207;28;20085;-69
2023/05/11 06:23:29;;;;;;;12.38;5.55;;;;;;;15.79;63.19;100796.75;5084209;28;20063;-69
2023/05/11 06:25:56;;;;;;;8.10;4.80;;;;;;;15.89;62.52;100805.69;5085921;28;20047;-69
2023/05/11 06:28:23;;;;;;;7.75;4.43;;;;;;;16.00;61.88;100799.53;5081016;28;20055;-68
2023/05/11 06:30:51;;;;;;;7.88;4.78;;;;;;;16.09;60.89;100804.97;5069892;28;20048;-69
2023/05/11 06:33:18;;;;;;;11.23;4.93;;;;;;;16.17;60.53;100801.72;5087283;28;20062;-69
2023/05/11 06:35:45;;;;;;;13.80;5.05;;;;;;;16.28;59.97;100803.50;5086905;28;20059;-69
2023/05/11 06:38:12;;;;;;;6.90;4.30;;;;;;;16.37;59.69;100798.28;5084876;28;20052;-70
2023/05/11 06:40:40;;;;;;;9.25;4.88;;;;;;;16.52;59.07;100803.34;5087130;28;20056;-70
2023/05/11 06:43:07;;;;;;;7.78;4.03;;;;;;;16.58;58.22;100808.19;5080629;28;20121;-69
2023/05/11 06:45:34;;;;;;;6.93;4.63;;;;;;;16.69;57.91;100806.31;5084190;28;20078;-70
2023/05/11 06:48:02;;;;;;;6.78;4.22;;;;;;;16.75;57.78;100802.38;5087259;28;20060;-69
2023/05/11 06:50:30;;;;;;;9.65;4.55;;;;;;;16.80;57.17;100805.47;5088606;28;20048;-69
2023/05/11 06:52:57;;;;;;;12.73;3.90;;;;;;;16.77;57.09;100804.88;5085427;28;20062;-70
2023/05/11 06:55:26;;;;;;;5.53;3.83;;;;;;;16.89;57.40;100806.53;5081971;28;20817;-71
2023/05/11 06:57:53;;;;;;;5.85;3.67;;;;;;;17.06;56.83;100799.81;5086393;28;20080;-69
2023/05/11 07:00:21;;;;;;;8.45;4.10;;;;;;;17.07;56.08;100796.19;5081485;28;20052;-70
2023/05/11 07:02:48;;;;;;;6.45;3.53;;;;;;;17.24;56.49;100808.06;5077626;28;20043;-70
2023/05/11 07:05:16;;;;;;;5.82;3.88;;;;;;;17.35;55.82;100811.53;5078198;28;20056;-70
2023/05/11 07:07:43;;;;;;;8.48;3.63;;;;;;;17.54;55.36;100805.47;5085642;28;20052;-70
2023/05/11 07:10:10;;;;;;;14.80;3.85;;;;;;;17.65;55.32;100808.06;5083946;28;20076;-70
2023/05/11 07:12:38;;;;;;;6.47;3.58;;;;;;;17.83;54.86;100810.13;5096122;28;20044;-69
2023/05/11 07:15:06;;;;;;;9.98;3.33;;;;;;;17.71;53.54;100806.69;5081943;28;20055;-70
2023/05/11 07:17:33;;;;;;;5.85;2.83;;;;;;;17.68;53.01;100815.78;5084796;28;20043;-69
2023/05/11 07:20:00;;;;;;;7.63;3.30;;;;;;;17.70;52.75;100805.00;5077918;28;20109;-68
2023/05/11 07:22:27;;;;;;;8.77;3.15;;;;;;;17.87;53.18;100811.56;5085667;28;20055;-69
2023/05/11 07:24:55;;;;;;;8.20;3.17;;;;;;;18.03;52.57;100814.59;5081632;28;20144;-68
2023/05/11 07:27:22;;;;;;;7.22;2.63;;;;;;;18.00;51.45;100814.84;5081758;28;20060;-69
2023/05/11 07:29:49;;;;;;;4.15;2.70;;;;;;;18.07;51.51;100810.69;5077889;28;20137;-69
2023/05/11 07:32:16;;;;;;;4.95;2.78;;;;;;;18.17;51.23;100808.88;5079652;28;20454;-69
2023/05/11 07:34:44;;;;;;;3.55;2.55;;;;;;;18.33;50.33;100811.06;5079741;28;20143;-68
2023/05/11 07:37:12;;;;;;;5.95;2.90;;;;;;;18.41;50.11;100805.88;5078367;28;20059;-69
2023/05/11 07:39:39;;;;;;;5.85;2.65;;;;;;;18.46;49.81;100803.66;5080513;28;20052;-70
2023/05/11 07:42:07;;;;;;;15.15;2.75;;;;;;;18.54;50.25;100804.78;5083636;28;20052;-70
2023/05/11 07:44:36;;;;;;;12.60;3.00;;;;;;;18.72;49.93;100808.50;5081047;28;20059;-69
2023/05/11 07:47:03;;;;;;;5.03;2.97;;;;;;;18.92;50.00;100807.53;5083021;28;20052;-70
2023/05/11 07:49:31;;;;;;;8.45;2.83;;;;;;;19.16;49.58;100807.09;5062239;28;20137;-70
2023/05/11 07:52:10;;;;;;;8.65;3.63;;;;;;;19.30;48.94;100813.84;5082626;28;20050;-69
2023/05/11 07:54:38;;;;;;;4.47;2.83;;;;;;;19.39;48.41;100804.97;5080460;28;20414;-69
2023/05/11 07:57:06;;;;;;;3.05;2.05;;;;;;;19.54;48.13;100800.00;5082341;28;20048;-69
2023/05/11 07:59:33;;;;;;;5.10;2.30;;;;;;;19.71;48.08;100801.97;5078850;28;20054;-70
2023/05/11 08:02:01;;;;;;;8.07;2.70;;;;;;;19.90;47.88;100802.91;5077149;28;20139;-70
2023/05/11 08:04:29;;;;;;;5.63;2.60;;;;;;;20.06;47.27;100805.78;5077292;28;20054;-69
2023/05/11 08:06:57;;;;;;;4.22;2.40;;;;;;;20.18;46.51;100803.78;5083792;28;20051;-70
2023/05/11 08:09:24;;;;;;;4.75;2.30;;;;;;;20.34;46.30;100803.97;5077227;28;20048;-69
2023/05/11 08:11:52;;;;;;;4.60;2.63;;;;;;;20.40;44.65;100807.91;5082103;28;20566;-69
2023/05/11 08:14:20;;;;;;;3.88;2.42;;;;;;;20.41;44.64;100798.88;5082319;28;20407;-69
2023/05/11 08:16:48;;;;;;;6.25;2.28;;;;;;;20.52;45.00;100804.03;5083062;28;20597;-69
2023/05/11 08:19:16;;;;;;;4.97;2.22;;;;;;;20.62;44.43;100810.16;5077787;28;21630;-69
2023/05/11 08:21:45;;;;;;;5.07;2.78;;;;;;;20.75;44.28;100807.09;5084999;28;20046;-70
2023/05/11 08:24:12;;;;;;;2.92;2.58;;;;;;;20.79;43.78;100808.50;5080645;28;20076;-71
2023/05/11 08:26:39;;;;;;;9.27;2.85;;;;;;;20.73;43.52;100809.94;5086478;28;20056;-70
2023/05/11 08:29:07;;;;;;;4.43;2.38;;;;;;;20.69;43.49;100805.88;5046754;28;20056;-70
2023/05/11 08:31:34;;;;;;;3.50;2.20;;;;;;;20.64;43.03;100812.69;5083749;28;20151;-71
2023/05/11 08:34:01;;;;;;;8.82;2.50;;;;;;;20.59;43.37;100807.81;5082838;28;20052;-71
2023/05/11 08:36:29;;;;;;;3.95;2.50;;;;;;;20.70;43.45;100810.25;5084641;28;20086;-71
2023/05/11 08:38:56;;;;;;;4.70;2.45;;;;;;;20.84;43.23;100808.03;5077470;28;20132;-70
2023/05/11 08:41:25;;;;;;;3.05;2.00;;;;;;;20.91;42.85;100801.94;5061586;28;20397;-69
2023/05/11 08:43:53;;;;;;;7.05;2.00;;;;;;;21.07;42.57;100811.94;5061709;28;20052;-69
2023/05/11 08:46:23;;;;;;;9.45;3.20;;;;;;;21.16;42.32;100815.50;5080327;28;20044;-69
2023/05/11 08:48:50;;;;;;;2.95;2.17;;;;;;;21.19;41.72;100808.03;5078596;28;20078;-69
2023/05/11 08:51:17;;;;;;;2.83;2.00;;;;;;;21.32;42.21;100809.50;5084754;28;20058;-71
2023/05/11 08:53:45;;;;;;;4.57;1.98;;;;;;;21.42;41.73;100803.03;5087532;28;20070;-69
2023/05/11 08:56:12;;;;;;;2.40;2.20;;;;;;;21.52;41.42;100810.97;5064607;28;20059;-69
2023/05/11 08:58:41;;;;;;;4.53;2.15;;;;;;;21.61;41.42;100803.84;5085580;28;20158;-71
2023/05/11 09:01:11;;;;;;;2.53;2.08;;;;;;;21.70;41.27;100808.25;5085062;28;20058;-71
2023/05/11 09:03:39;;;;;;;6.05;2.20;;;;;;;21.72;40.66;100798.22;5087521;28;20044;-70
2023/05/11 09:06:07;;;;;;;5.50;2.70;;;;;;;21.87;40.86;100796.63;5086608;28;20052;-69
2023/05/11 09:08:36;;;;;;;3.03;2.22;;;;;;;22.05;40.60;100801.06;5084014;28;20044;-71
2023/05/11 09:11:04;;;;;;;7.43;2.72;;;;;;;22.16;40.49;100790.94;5085135;28;20126;-72
2023/05/11 09:13:32;;;;;;;3.17;2.05;;;;;;;22.28;40.33;100794.16;5082577;28;20043;-70
2023/05/11 09:16:00;;;;;;;3.72;2.47;;;;;;;22.33;39.69;100793.66;5074527;28;20046;-70
2023/05/11 09:18:27;;;;;;;3.00;2.15;;;;;;;22.53;39.86;100792.41;5074878;28;20047;-69
2023/05/11 09:20:55;;;;;;;5.72;2.30;;;;;;;22.60;38.23;100785.34;5088165;28;20699;-69
2023/05/11 09:23:25;;;;;;;6.57;2.08;;;;;;;22.71;38.14;100801.16;5086173;28;20080;-69
2023/05/11 09:25:53;;;;;;;2.30;1.77;;;;;;;22.83;38.28;100800.81;5069912;28;20504;-69
2023/05/11 09:28:23;;;;;;;5.68;2.08;;;;;;;22.75;37.84;100789.09;5088202;28;20048;-69
2023/05/11 09:30:52;;;;;;;7.93;2.00;;;;;;;22.86;37.46;100795.13;5090789;28;20123;-72
2023/05/11 09:33:22;;;;;;;3.85;1.90;;;;;;;22.97;36.99;100800.22;5091999;28;20052;-69
2023/05/11 09:35:50;;;;;;;3.95;1.88;;;;;;;22.97;35.88;100802.91;5089011;28;20048;-70
2023/05/11 09:38:21;;;;;;;3.53;2.08;;;;;;;22.86;36.04;100803.19;5087043;28;20066;-70
2023/05/11 09:40:53;;;;;;;2.75;1.80;;;;;;;22.80;36.20;100798.50;5087763;28;20048;-69
2023/05/11 09:43:25;;;;;;;2.95;1.92;;;;;;;22.75;36.62;100801.69;5083832;28;20519;-70
2023/05/11 09:45:54;;;;;;;4.80;1.92;;;;;;;22.76;36.50;100792.63;5088750;28;20060;-69
2023/05/11 09:48:27;;;;;;;3.33;2.08;;;;;;;22.98;36.64;100801.91;5089282;28;20463;-69
2023/05/11 09:51:05;;;;;;;5.10;1.80;;;;;;;23.22;36.06;100812.63;5088109;28;20120;-70
2023/05/11 09:53:41;;;;;;;2.85;2.13;;;;;;;23.18;35.45;100797.03;5090974;28;20052;-71
2023/05/11 09:56:09;;;;;;;4.57;1.90;;;;;;;23.20;34.92;100803.09;5092635;28;20464;-70
2023/05/11 09:58:56;;;;;;;3.40;2.05;;;;;;;23.04;35.07;100793.16;5083961;28;20054;-70
2023/05/11 10:01:33;;;;;;;4.03;1.90;;;;;;;23.13;35.10;100802.91;5086210;28;20154;-70
2023/05/11 10:04:02;;;;;;;5.40;2.20;;;;;;;23.13;34.52;100802.91;5083689;28;20048;-70
2023/05/11 10:06:54;;;;;;;3.85;2.00;;;;;;;23.20;33.86;100805.78;5087770;28;20048;-70
2023/05/11 10:09:24;;;;;;;4.53;2.10;;;;;;;23.37;34.51;100793.16;5085796;28;20060;-69
2023/05/11 10:11:52;;;;;;;6.72;1.92;;;;;;;23.50;34.35;100790.78;5085485;28;20050;-71
2023/05/11 10:14:20;;;;;;;3.80;2.33;;;;;;;23.55;34.39;100785.75;5083714;28;20054;-71
2023/05/11 10:16:48;;;;;;;5.95;1.83;;;;;;;23.67;34.14;100795.16;5087857;28;20056;-70
2023/05/11 10:19:16;;;;;;;5.75;1.75;;;;;;;23.67;33.31;100788.94;5069759;28;20631;-70
2023/05/11 10:21:45;;;;;;;5.05;1.77;;;;;;;23.72;33.21;100784.72;5080538;28;20040;-69
2023/05/11 10:24:13;;;;;;;4.38;1.65;;;;;;;23.61;32.30;100785.06;5083280;28;20471;-70
2023/05/11 10:26:41;;;;;;;2.53;1.75;;;;;;;23.63;33.34;100785.72;5076847;28;20040;-69
2023/05/11 10:29:09;;;;;;;5.63;1.77;;;;;;;23.98;33.19;100775.56;5061852;28;20491;-70
2023/05/11 10:31:37;;;;;;;4.15;1.92;;;;;;;24.27;33.04;100788.38;5083702;28;20052;-70
2023/05/11 10:34:05;;;;;;;4.85;1.92;;;;;;;24.24;32.04;100792.28;5085356;28;20334;-71
2023/05/11 10:36:33;;;;;;;5.00;1.50;;;;;;;23.98;31.61;100770.19;5067889;28;20052;-70
2023/05/11 10:39:00;;;;;;;7.15;1.92;;;;;;;23.72;32.23;100783.88;5085575;28;20051;-70
2023/05/11 10:42:00;;;;;;;4.88;1.85;;;;;;;23.45;33.04;100791.28;5082241;28;20063;-70
2023/05/11 10:44:27;;;;;;;3.90;1.60;;;;;;;23.73;32.70;100782.88;5062408;28;20044;-69
2023/05/11 10:47:20;;;;;;;4.00;1.50;;;;;;;23.99;32.49;100772.69;5085353;28;20554;-70
2023/05/11 10:49:57;;;;;;;7.13;1.73;;;;;;;24.28;31.98;100773.09;5085395;28;20060;-69
2023/05/11 10:52:56;;;;;;;3.65;1.88;;;;;;;24.54;32.10;100776.31;5082778;28;20051;-69
2023/05/11 10:55:48;;;;;;;7.60;1.80;;;;;;;24.78;31.26;100779.91;5083444;28;20048;-70
2023/05/11 10:58:43;;;;;;;3.25;1.50;;;;;;;24.60;30.97;100777.47;5076822;28;20052;-71
2023/05/11 11:01:21;;;;;;;2.30;1.50;;;;;;;24.20;31.28;100777.50;5077361;28;20048;-69
2023/05/11 11:04:01;;;;;;;5.93;1.90;;;;;;;24.07;31.51;100779.06;5078796;28;20095;-69
2023/05/11 11:06:30;;;;;;;3.22;2.00;;;;;;;24.07;31.76;100782.59;5077207;28;20059;-71
2023/05/11 11:09:00;;;;;;;4.78;1.70;;;;;;;24.13;31.64;100772.97;5079810;28;20067;-71
2023/05/11 11:11:45;;;;;;;2.33;1.65;;;;;;;24.31;31.73;100768.19;5081142;28;20044;-71
2023/05/11 11:14:14;;;;;;;5.35;1.83;;;;;;;24.41;31.07;100765.31;5086936;28;20527;-70
2023/05/11 11:17:17;;;;;;;3.10;1.60;;;;;;;24.38;31.60;100771.06;5087639;28;20134;-74
2023/05/11 11:19:44;;;;;;;6.40;1.85;;;;;;;24.31;31.48;100775.41;5078926;28;20078;-71
2023/05/11 11:22:33;;;;;;;5.30;1.90;;;;;;;24.13;31.35;100770.28;5082400;28;20039;-71
2023/05/11 11:25:04;;;;;;;8.05;2.15;;;;;;;23.99;31.24;100770.00;5075955;28;20047;-69
2023/05/11 11:27:40;;;;;;;2.72;1.63;;;;;;;24.21;31.24;100763.03;5081355;28;20040;-71
2023/05/11 11:30:21;;;;;;;4.55;1.98;;;;;;;24.29;30.98;100772.06;5077627;28;20056;-70
2023/05/11 11:32:51;;;;;;;2.50;1.48;;;;;;;24.02;31.10;100770.69;5091587;28;20107;-71